LVVAN SULS-SUTR
Flight info
| Callsign | LVVAN |
|---|---|
| Flight time | 0h 47m |
| Altitude | 3500 |
| Route | LDS DCT TIDRU DCT OGMAR |
| Aircraft | PA24/L-SD/S |
Departure
| Time | 2026-04-29 02:28 |
|---|---|
| Airport | Capitan Corbeta CA Curbelo International Airport (SULS) |
Arrival
| Time | 2026-04-29 03:16 |
|---|---|
| Airport | Treinta y Tres Airport (SUTR) |
| Time | Latitude | Longitude | Altitude | Speed | Heading |
|---|---|---|---|---|---|
| 2026-04-29 02:04 | -34.86295 | -55.09801 | 95 ft | 0 kts | 163° |
| 2026-04-29 02:23 | -34.86295 | -55.09800 | 95 ft | 0 kts | 162° |
| 2026-04-29 02:23 | -34.86307 | -55.09795 | 95 ft | 4 kts | 148° |
| 2026-04-29 02:24 | -34.86298 | -55.09725 | 95 ft | 16 kts | 70° |
| 2026-04-29 02:24 | -34.86297 | -55.09632 | 95 ft | 12 kts | 153° |
| 2026-04-29 02:24 | -34.86308 | -55.09566 | 95 ft | 10 kts | 22° |
| 2026-04-29 02:25 | -34.86136 | -55.09568 | 95 ft | 8 kts | 354° |
| 2026-04-29 02:25 | -34.86107 | -55.09502 | 95 ft | 16 kts | 89° |
| 2026-04-29 02:25 | -34.86083 | -55.09384 | 94 ft | 18 kts | 22° |
| 2026-04-29 02:25 | -34.85950 | -55.09385 | 95 ft | 20 kts | 359° |
| 2026-04-29 02:26 | -34.85823 | -55.09388 | 96 ft | 19 kts | 358° |
| 2026-04-29 02:26 | -34.85700 | -55.09418 | 97 ft | 18 kts | 298° |
| 2026-04-29 02:26 | -34.85727 | -55.09559 | 95 ft | 17 kts | 252° |
| 2026-04-29 02:26 | -34.85762 | -55.09692 | 95 ft | 17 kts | 251° |
| 2026-04-29 02:27 | -34.85795 | -55.09812 | 95 ft | 12 kts | 257° |
| 2026-04-29 02:27 | -34.85760 | -55.09876 | 95 ft | 12 kts | 341° |
| 2026-04-29 02:27 | -34.85676 | -55.09911 | 96 ft | 9 kts | 338° |
| 2026-04-29 02:27 | -34.85623 | -55.09834 | 97 ft | 33 kts | 70° |
| 2026-04-29 02:28 | -34.85499 | -55.09353 | 184 ft | 72 kts | 75° |
| 2026-04-29 02:28 | -34.85385 | -55.08698 | 425 ft | 85 kts | 78° |
| 2026-04-29 02:28 | -34.85276 | -55.07927 | 733 ft | 92 kts | 80° |
| 2026-04-29 02:28 | -34.85195 | -55.07161 | 1118 ft | 92 kts | 80° |
| 2026-04-29 02:29 | -34.85147 | -55.06644 | 1348 ft | 94 kts | 82° |
| 2026-04-29 02:29 | -34.85049 | -55.05521 | 1751 ft | 102 kts | 82° |
| 2026-04-29 02:29 | -34.84975 | -55.04943 | 1968 ft | 106 kts | 80° |
| 2026-04-29 02:29 | -34.84890 | -55.04025 | 2316 ft | 113 kts | 88° |
| 2026-04-29 02:30 | -34.84848 | -55.03006 | 2571 ft | 126 kts | 91° |
| 2026-04-29 02:30 | -34.84834 | -55.01950 | 2931 ft | 129 kts | 90° |
| 2026-04-29 02:30 | -34.84882 | -55.00830 | 3218 ft | 134 kts | 92° |
| 2026-04-29 02:30 | -34.84962 | -54.99665 | 3432 ft | 144 kts | 91° |
| 2026-04-29 02:31 | -34.85018 | -54.98391 | 3480 ft | 157 kts | 88° |
| 2026-04-29 02:31 | -34.84925 | -54.97029 | 3552 ft | 161 kts | 75° |
| 2026-04-29 02:31 | -34.84533 | -54.95727 | 3469 ft | 170 kts | 57° |
| 2026-04-29 02:31 | -34.83807 | -54.94577 | 3410 ft | 172 kts | 38° |
| 2026-04-29 02:32 | -34.82849 | -54.93701 | 3312 ft | 167 kts | 25° |
| 2026-04-29 02:32 | -34.81879 | -54.93075 | 3377 ft | 155 kts | 20° |
| 2026-04-29 02:32 | -34.80901 | -54.92531 | 3387 ft | 150 kts | 15° |
| 2026-04-29 02:32 | -34.79961 | -54.92079 | 3473 ft | 143 kts | 13° |
| 2026-04-29 02:33 | -34.79002 | -54.91699 | 3432 ft | 146 kts | 9° |
| 2026-04-29 02:33 | -34.78020 | -54.91358 | 3409 ft | 146 kts | 9° |
| 2026-04-29 02:33 | -34.77051 | -54.91019 | 3407 ft | 145 kts | 9° |
| 2026-04-29 02:33 | -34.76075 | -54.90662 | 3368 ft | 147 kts | 9° |
| 2026-04-29 02:34 | -34.75103 | -54.90319 | 3376 ft | 145 kts | 9° |
| 2026-04-29 02:34 | -34.74135 | -54.89984 | 3347 ft | 145 kts | 8° |
| 2026-04-29 02:34 | -34.73163 | -54.89664 | 3340 ft | 144 kts | 8° |
| 2026-04-29 02:34 | -34.72206 | -54.89363 | 3373 ft | 141 kts | 7° |
| 2026-04-29 02:35 | -34.71245 | -54.89072 | 3355 ft | 143 kts | 6° |
| 2026-04-29 02:35 | -34.70286 | -54.88786 | 3381 ft | 141 kts | 6° |
| 2026-04-29 02:35 | -34.69332 | -54.88508 | 3376 ft | 142 kts | 6° |
| 2026-04-29 02:35 | -34.68368 | -54.88228 | 3380 ft | 142 kts | 7° |
| 2026-04-29 02:36 | -34.67412 | -54.87934 | 3399 ft | 142 kts | 7° |
| 2026-04-29 02:36 | -34.66447 | -54.87609 | 3442 ft | 145 kts | 9° |
| 2026-04-29 02:36 | -34.65481 | -54.87238 | 3532 ft | 148 kts | 12° |
| 2026-04-29 02:36 | -34.64495 | -54.86789 | 3542 ft | 156 kts | 15° |
| 2026-04-29 02:37 | -34.63491 | -54.86296 | 3608 ft | 156 kts | 15° |
| 2026-04-29 02:37 | -34.62464 | -54.85791 | 3610 ft | 160 kts | 15° |
| 2026-04-29 02:37 | -34.61551 | -54.85324 | 3735 ft | 155 kts | 17° |
| 2026-04-29 02:37 | -34.60545 | -54.84770 | 3562 ft | 167 kts | 19° |
| 2026-04-29 02:38 | -34.59545 | -54.84159 | 3777 ft | 154 kts | 22° |
| 2026-04-29 02:38 | -34.58610 | -54.83494 | 3704 ft | 159 kts | 24° |
| 2026-04-29 02:38 | -34.57614 | -54.82845 | 3617 ft | 165 kts | 20° |
| 2026-04-29 02:38 | -34.56588 | -54.82307 | 3735 ft | 156 kts | 14° |
| 2026-04-29 02:39 | -34.55591 | -54.81861 | 3760 ft | 157 kts | 14° |
| 2026-04-29 02:39 | -34.54556 | -54.81392 | 3738 ft | 159 kts | 14° |
| 2026-04-29 02:39 | -34.53539 | -54.80901 | 3816 ft | 157 kts | 17° |
| 2026-04-29 02:39 | -34.52538 | -54.80351 | 3848 ft | 160 kts | 19° |
| 2026-04-29 02:40 | -34.51459 | -54.79861 | 3677 ft | 170 kts | 11° |
| 2026-04-29 02:40 | -34.50335 | -54.79534 | 3732 ft | 161 kts | 5° |
| 2026-04-29 02:40 | -34.49242 | -54.79319 | 3757 ft | 159 kts | 1° |
| 2026-04-29 02:40 | -34.48122 | -54.79174 | 3671 ft | 163 kts | 359° |
| 2026-04-29 02:41 | -34.47004 | -54.79074 | 3684 ft | 159 kts | 356° |
| 2026-04-29 02:41 | -34.45909 | -54.79042 | 3684 ft | 157 kts | 354° |
| 2026-04-29 02:41 | -34.44811 | -54.79062 | 3646 ft | 158 kts | 353° |
| 2026-04-29 02:41 | -34.43715 | -54.79084 | 3634 ft | 157 kts | 354° |
| 2026-04-29 02:42 | -34.42604 | -54.79071 | 3542 ft | 161 kts | 356° |
| 2026-04-29 02:42 | -34.41484 | -54.78985 | 3509 ft | 161 kts | 0° |
| 2026-04-29 02:42 | -34.40376 | -54.78804 | 3478 ft | 161 kts | 3° |
| 2026-04-29 02:42 | -34.39271 | -54.78538 | 3417 ft | 163 kts | 7° |
| 2026-04-29 02:43 | -34.38184 | -54.78143 | 3376 ft | 164 kts | 14° |
| 2026-04-29 02:43 | -34.37114 | -54.77664 | 3359 ft | 164 kts | 12° |
| 2026-04-29 02:43 | -34.36013 | -54.77325 | 3349 ft | 162 kts | 5° |
| 2026-04-29 02:43 | -34.34909 | -54.77082 | 3323 ft | 161 kts | 4° |
| 2026-04-29 02:44 | -34.33809 | -54.76857 | 3307 ft | 160 kts | 3° |
| 2026-04-29 02:44 | -34.32706 | -54.76678 | 3278 ft | 160 kts | 360° |
| 2026-04-29 02:44 | -34.31606 | -54.76539 | 3258 ft | 159 kts | 360° |
| 2026-04-29 02:44 | -34.30505 | -54.76419 | 3244 ft | 159 kts | 359° |
| 2026-04-29 02:45 | -34.29401 | -54.76285 | 3226 ft | 159 kts | 360° |
| 2026-04-29 02:45 | -34.28300 | -54.76147 | 3215 ft | 159 kts | 0° |
| 2026-04-29 02:45 | -34.27203 | -54.75956 | 3200 ft | 160 kts | 3° |
| 2026-04-29 02:45 | -34.26117 | -54.75825 | 3231 ft | 156 kts | 358° |
| 2026-04-29 02:46 | -34.25029 | -54.75769 | 3196 ft | 155 kts | 356° |
| 2026-04-29 02:46 | -34.23961 | -54.75769 | 3241 ft | 153 kts | 353° |
| 2026-04-29 02:46 | -34.22903 | -54.75823 | 3269 ft | 152 kts | 350° |
| 2026-04-29 02:46 | -34.21855 | -54.75958 | 3286 ft | 151 kts | 347° |
| 2026-04-29 02:47 | -34.20817 | -54.76139 | 3312 ft | 150 kts | 344° |
| 2026-04-29 02:47 | -34.19796 | -54.76398 | 3332 ft | 150 kts | 341° |
| 2026-04-29 02:47 | -34.18783 | -54.76674 | 3351 ft | 150 kts | 341° |
| 2026-04-29 02:47 | -34.17790 | -54.77038 | 3380 ft | 149 kts | 335° |
| 2026-04-29 02:48 | -34.16834 | -54.77489 | 3433 ft | 146 kts | 333° |
| 2026-04-29 02:48 | -34.15878 | -54.77917 | 3431 ft | 148 kts | 336° |
| 2026-04-29 02:48 | -34.14882 | -54.78263 | 3434 ft | 150 kts | 341° |
| 2026-04-29 02:48 | -34.13859 | -54.78499 | 3459 ft | 150 kts | 347° |
| 2026-04-29 02:49 | -34.12807 | -54.78589 | 3447 ft | 153 kts | 353° |
| 2026-04-29 02:49 | -34.11739 | -54.78552 | 3468 ft | 153 kts | 354° |
| 2026-04-29 02:49 | -34.10672 | -54.78567 | 3466 ft | 154 kts | 354° |
| 2026-04-29 02:49 | -34.09601 | -54.78548 | 3481 ft | 154 kts | 355° |
| 2026-04-29 02:50 | -34.08533 | -54.78516 | 3501 ft | 154 kts | 356° |
| 2026-04-29 02:50 | -34.07463 | -54.78473 | 3512 ft | 154 kts | 356° |
| 2026-04-29 02:50 | -34.06389 | -54.78424 | 3530 ft | 154 kts | 356° |
| 2026-04-29 02:50 | -34.05317 | -54.78384 | 3547 ft | 154 kts | 356° |
| 2026-04-29 02:51 | -34.04243 | -54.78343 | 3566 ft | 154 kts | 356° |
| 2026-04-29 02:51 | -34.03169 | -54.78305 | 3579 ft | 155 kts | 356° |
| 2026-04-29 02:51 | -34.02107 | -54.78268 | 3592 ft | 155 kts | 356° |
| 2026-04-29 02:51 | -34.01016 | -54.78230 | 3598 ft | 155 kts | 356° |
| 2026-04-29 02:52 | -33.99949 | -54.78190 | 3611 ft | 155 kts | 356° |
| 2026-04-29 02:52 | -33.98871 | -54.78155 | 3623 ft | 155 kts | 356° |
| 2026-04-29 02:52 | -33.97794 | -54.78124 | 3635 ft | 155 kts | 356° |
| 2026-04-29 02:52 | -33.96716 | -54.78092 | 3656 ft | 155 kts | 356° |
| 2026-04-29 02:53 | -33.95636 | -54.78058 | 3668 ft | 155 kts | 356° |
| 2026-04-29 02:53 | -33.94556 | -54.78024 | 3682 ft | 155 kts | 356° |
| 2026-04-29 02:53 | -33.93481 | -54.77857 | 3613 ft | 161 kts | 12° |
| 2026-04-29 02:53 | -33.92403 | -54.77471 | 3638 ft | 159 kts | 10° |
| 2026-04-29 02:54 | -33.91347 | -54.77131 | 3691 ft | 157 kts | 10° |
| 2026-04-29 02:54 | -33.90278 | -54.76777 | 3652 ft | 161 kts | 10° |
| 2026-04-29 02:54 | -33.89208 | -54.76422 | 3695 ft | 158 kts | 10° |
| 2026-04-29 02:54 | -33.88148 | -54.76067 | 3715 ft | 159 kts | 10° |
| 2026-04-29 02:55 | -33.87771 | -54.75943 | 3708 ft | 160 kts | 9° |
| 2026-04-29 02:55 | -33.86846 | -54.75636 | 3720 ft | 159 kts | 10° |
| 2026-04-29 02:55 | -33.85782 | -54.75277 | 3743 ft | 159 kts | 10° |
| 2026-04-29 02:55 | -33.84712 | -54.74919 | 3740 ft | 160 kts | 10° |
| 2026-04-29 02:56 | -33.83644 | -54.74558 | 3752 ft | 160 kts | 10° |
| 2026-04-29 02:56 | -33.82574 | -54.74200 | 3769 ft | 159 kts | 10° |
| 2026-04-29 02:56 | -33.81511 | -54.73843 | 3732 ft | 161 kts | 10° |
| 2026-04-29 02:56 | -33.80439 | -54.73486 | 3787 ft | 159 kts | 10° |
| 2026-04-29 02:57 | -33.79374 | -54.73126 | 3791 ft | 160 kts | 10° |
| 2026-04-29 02:57 | -33.78299 | -54.72759 | 3794 ft | 160 kts | 11° |
| 2026-04-29 02:57 | -33.77231 | -54.72392 | 3827 ft | 159 kts | 11° |
| 2026-04-29 02:57 | -33.76159 | -54.72025 | 3824 ft | 161 kts | 10° |
| 2026-04-29 02:58 | -33.75085 | -54.71665 | 3831 ft | 160 kts | 11° |
| 2026-04-29 02:58 | -33.74013 | -54.71295 | 3837 ft | 160 kts | 10° |
| 2026-04-29 02:58 | -33.72940 | -54.70927 | 3850 ft | 161 kts | 11° |
| 2026-04-29 02:58 | -33.71867 | -54.70556 | 3861 ft | 160 kts | 11° |
| 2026-04-29 02:59 | -33.70794 | -54.70182 | 3874 ft | 160 kts | 11° |
| 2026-04-29 02:59 | -33.69723 | -54.69807 | 3887 ft | 161 kts | 11° |
| 2026-04-29 02:59 | -33.68649 | -54.69441 | 3904 ft | 161 kts | 9° |
| 2026-04-29 02:59 | -33.67574 | -54.69072 | 3913 ft | 161 kts | 11° |
| 2026-04-29 03:00 | -33.66497 | -54.68696 | 3925 ft | 161 kts | 11° |
| 2026-04-29 03:00 | -33.65422 | -54.68325 | 3946 ft | 161 kts | 10° |
| 2026-04-29 03:00 | -33.64348 | -54.67946 | 3956 ft | 161 kts | 11° |
| 2026-04-29 03:00 | -33.63276 | -54.67557 | 3970 ft | 162 kts | 14° |
| 2026-04-29 03:01 | -33.62278 | -54.66891 | 3900 ft | 168 kts | 32° |
| 2026-04-29 03:01 | -33.61384 | -54.65992 | 3958 ft | 166 kts | 36° |
| 2026-04-29 03:01 | -33.60519 | -54.65080 | 3978 ft | 167 kts | 37° |
| 2026-04-29 03:01 | -33.59636 | -54.64156 | 3952 ft | 169 kts | 35° |
| 2026-04-29 03:02 | -33.58738 | -54.63264 | 3982 ft | 167 kts | 36° |
| 2026-04-29 03:02 | -33.57860 | -54.62342 | 3918 ft | 172 kts | 37° |
| 2026-04-29 03:02 | -33.56931 | -54.61384 | 3720 ft | 180 kts | 37° |
| 2026-04-29 03:02 | -33.55974 | -54.60414 | 3547 ft | 181 kts | 35° |
| 2026-04-29 03:03 | -33.54985 | -54.59525 | 3539 ft | 173 kts | 30° |
| 2026-04-29 03:03 | -33.53996 | -54.58760 | 3570 ft | 168 kts | 27° |
| 2026-04-29 03:03 | -33.52975 | -54.58042 | 3472 ft | 172 kts | 25° |
| 2026-04-29 03:03 | -33.51946 | -54.57333 | 3428 ft | 169 kts | 26° |
| 2026-04-29 03:04 | -33.50968 | -54.56557 | 3382 ft | 169 kts | 32° |
| 2026-04-29 03:04 | -33.50012 | -54.55754 | 3385 ft | 168 kts | 27° |
| 2026-04-29 03:04 | -33.48947 | -54.55145 | 3286 ft | 171 kts | 13° |
| 2026-04-29 03:04 | -33.47828 | -54.54778 | 3344 ft | 161 kts | 11° |
| 2026-04-29 03:05 | -33.46765 | -54.54362 | 3315 ft | 163 kts | 15° |
| 2026-04-29 03:05 | -33.45718 | -54.53910 | 3367 ft | 160 kts | 14° |
| 2026-04-29 03:05 | -33.44663 | -54.53507 | 3393 ft | 160 kts | 13° |
| 2026-04-29 03:05 | -33.43607 | -54.53054 | 3367 ft | 162 kts | 18° |
| 2026-04-29 03:06 | -33.42563 | -54.52548 | 3412 ft | 161 kts | 16° |
| 2026-04-29 03:06 | -33.41515 | -54.52078 | 3425 ft | 161 kts | 15° |
| 2026-04-29 03:06 | -33.40473 | -54.51562 | 3434 ft | 163 kts | 19° |
| 2026-04-29 03:06 | -33.39449 | -54.50990 | 3460 ft | 162 kts | 22° |
| 2026-04-29 03:07 | -33.38451 | -54.50346 | 3460 ft | 164 kts | 23° |
| 2026-04-29 03:07 | -33.37444 | -54.49715 | 3461 ft | 163 kts | 23° |
| 2026-04-29 03:07 | -33.36438 | -54.49092 | 3456 ft | 163 kts | 22° |
| 2026-04-29 03:07 | -33.35444 | -54.48436 | 3478 ft | 164 kts | 25° |
| 2026-04-29 03:08 | -33.34478 | -54.47708 | 3495 ft | 165 kts | 30° |
| 2026-04-29 03:08 | -33.33545 | -54.46907 | 3521 ft | 166 kts | 30° |
| 2026-04-29 03:08 | -33.32588 | -54.46143 | 3523 ft | 165 kts | 28° |
| 2026-04-29 03:08 | -33.31615 | -54.45417 | 3548 ft | 164 kts | 27° |
| 2026-04-29 03:09 | -33.30650 | -54.44699 | 3564 ft | 161 kts | 26° |
| 2026-04-29 03:09 | -33.29684 | -54.44006 | 3476 ft | 161 kts | 26° |
| 2026-04-29 03:09 | -33.28714 | -54.43319 | 3414 ft | 165 kts | 24° |
| 2026-04-29 03:09 | -33.27714 | -54.42622 | 3322 ft | 166 kts | 26° |
| 2026-04-29 03:10 | -33.26741 | -54.41913 | 3254 ft | 160 kts | 27° |
| 2026-04-29 03:10 | -33.25850 | -54.41212 | 3137 ft | 152 kts | 28° |
| 2026-04-29 03:10 | -33.24938 | -54.40513 | 3036 ft | 158 kts | 24° |
| 2026-04-29 03:10 | -33.23997 | -54.39850 | 3003 ft | 158 kts | 24° |
| 2026-04-29 03:11 | -33.23010 | -54.39291 | 2855 ft | 156 kts | 17° |
| 2026-04-29 03:11 | -33.22003 | -54.38783 | 2763 ft | 159 kts | 17° |
| 2026-04-29 03:11 | -33.21007 | -54.38380 | 2622 ft | 146 kts | 9° |
| 2026-04-29 03:11 | -33.20018 | -54.38081 | 2286 ft | 143 kts | 9° |
| 2026-04-29 03:12 | -33.19064 | -54.37826 | 1972 ft | 139 kts | 7° |
| 2026-04-29 03:12 | -33.18286 | -54.37147 | 1577 ft | 141 kts | 60° |
| 2026-04-29 03:12 | -33.18691 | -54.36284 | 1260 ft | 140 kts | 170° |
| 2026-04-29 03:12 | -33.19608 | -54.36121 | 1135 ft | 130 kts | 173° |
| 2026-04-29 03:13 | -33.20495 | -54.35973 | 949 ft | 127 kts | 175° |
| 2026-04-29 03:13 | -33.21314 | -54.35801 | 954 ft | 113 kts | 172° |
| 2026-04-29 03:13 | -33.22040 | -54.35676 | 1040 ft | 105 kts | 178° |
| 2026-04-29 03:13 | -33.22776 | -54.35624 | 1040 ft | 106 kts | 186° |
| 2026-04-29 03:14 | -33.23455 | -54.35401 | 1038 ft | 107 kts | 138° |
| 2026-04-29 03:14 | -33.23679 | -54.34587 | 1053 ft | 103 kts | 69° |
| 2026-04-29 03:14 | -33.23128 | -54.34144 | 1001 ft | 99 kts | 354° |
| 2026-04-29 03:14 | -33.22467 | -54.34333 | 879 ft | 100 kts | 340° |
| 2026-04-29 03:15 | -33.21816 | -54.34507 | 681 ft | 85 kts | 351° |
| 2026-04-29 03:15 | -33.21247 | -54.34563 | 543 ft | 81 kts | 352° |
| 2026-04-29 03:15 | -33.20674 | -54.34612 | 425 ft | 82 kts | 352° |
| 2026-04-29 03:15 | -33.20134 | -54.34668 | 280 ft | 73 kts | 352° |
| 2026-04-29 03:16 | -33.19819 | -54.34695 | 215 ft | 59 kts | 351° |
| 2026-04-29 03:16 | -33.19510 | -54.34726 | 204 ft | 32 kts | 356° |
| 2026-04-29 03:16 | -33.19376 | -54.34735 | 200 ft | 7 kts | 353° |
| 2026-04-29 03:16 | -33.19356 | -54.34737 | 203 ft | 8 kts | 2° |
| 2026-04-29 03:17 | -33.19326 | -54.34746 | 197 ft | 3 kts | 255° |
| 2026-04-29 03:17 | -33.19327 | -54.34748 | 197 ft | 0 kts | 234° |
| 2026-04-29 03:17 | -33.19369 | -54.34744 | 198 ft | 10 kts | 171° |
| 2026-04-29 03:17 | -33.19448 | -54.34732 | 200 ft | 15 kts | 174° |
| 2026-04-29 03:18 | -33.19576 | -54.34722 | 212 ft | 15 kts | 178° |
| 2026-04-29 03:18 | -33.19691 | -54.34709 | 210 ft | 17 kts | 175° |
| 2026-04-29 03:18 | -33.19777 | -54.34702 | 211 ft | 8 kts | 190° |
| 2026-04-29 03:18 | -33.19810 | -54.34748 | 213 ft | 5 kts | 258° |
| 2026-04-29 03:19 | -33.19807 | -54.34781 | 216 ft | 2 kts | 294° |
| 2026-04-29 03:19 | -33.19804 | -54.34787 | 211 ft | 0 kts | 298° |
| 2026-04-29 03:20 | -33.19791 | -54.34808 | 210 ft | 5 kts | 306° |
| 2026-04-29 03:20 | -33.19782 | -54.34852 | 205 ft | 4 kts | 247° |
| 2026-04-29 03:20 | -33.19773 | -54.34861 | 204 ft | 1 kts | 66° |
| 2026-04-29 03:21 | -33.19773 | -54.34860 | 204 ft | 0 kts | 75° |